sensor_id;sensor_type;location;lat;lon;timestamp;P1;durP1;ratioP1;P2;durP2;ratioP2
54193;SDS011;40102;50.906;6.972;2024-02-26T00:02:14;1.95;;;0.77;;
54193;SDS011;40102;50.906;6.972;2024-02-26T00:04:40;1.48;;;0.80;;
54193;SDS011;40102;50.906;6.972;2024-02-26T00:07:05;2.00;;;1.00;;
54193;SDS011;40102;50.906;6.972;2024-02-26T00:09:30;0.93;;;0.70;;
54193;SDS011;40102;50.906;6.972;2024-02-26T00:11:56;2.08;;;0.70;;
54193;SDS011;40102;50.906;6.972;2024-02-26T00:14:22;1.10;;;0.75;;
54193;SDS011;40102;50.906;6.972;2024-02-26T00:16:48;1.33;;;0.85;;
54193;SDS011;40102;50.906;6.972;2024-02-26T00:19:13;0.80;;;0.70;;
54193;SDS011;40102;50.906;6.972;2024-02-26T00:21:41;1.42;;;0.90;;
54193;SDS011;40102;50.906;6.972;2024-02-26T00:24:09;0.95;;;0.68;;
54193;SDS011;40102;50.906;6.972;2024-02-26T00:26:35;1.00;;;0.77;;
54193;SDS011;40102;50.906;6.972;2024-02-26T00:29:00;1.58;;;0.90;;
54193;SDS011;40102;50.906;6.972;2024-02-26T00:31:25;1.60;;;1.00;;
54193;SDS011;40102;50.906;6.972;2024-02-26T00:33:50;1.60;;;0.88;;
54193;SDS011;40102;50.906;6.972;2024-02-26T00:36:16;3.00;;;0.98;;
54193;SDS011;40102;50.906;6.972;2024-02-26T00:38:41;1.50;;;0.77;;
54193;SDS011;40102;50.906;6.972;2024-02-26T00:41:09;1.52;;;0.82;;
54193;SDS011;40102;50.906;6.972;2024-02-26T00:43:35;1.13;;;0.70;;
54193;SDS011;40102;50.906;6.972;2024-02-26T00:46:00;2.78;;;0.80;;
54193;SDS011;40102;50.906;6.972;2024-02-26T00:48:25;1.25;;;0.68;;
54193;SDS011;40102;50.906;6.972;2024-02-26T00:50:51;1.48;;;0.70;;
54193;SDS011;40102;50.906;6.972;2024-02-26T00:53:16;1.00;;;0.60;;
54193;SDS011;40102;50.906;6.972;2024-02-26T00:55:42;1.00;;;0.63;;
54193;SDS011;40102;50.906;6.972;2024-02-26T00:58:07;2.80;;;0.85;;
54193;SDS011;40102;50.906;6.972;2024-02-26T01:00:32;0.95;;;0.60;;
54193;SDS011;40102;50.906;6.972;2024-02-26T01:02:58;1.00;;;0.70;;
54193;SDS011;40102;50.906;6.972;2024-02-26T01:05:24;1.10;;;0.60;;
54193;SDS011;40102;50.906;6.972;2024-02-26T01:07:50;1.38;;;0.65;;
54193;SDS011;40102;50.906;6.972;2024-02-26T01:10:15;2.80;;;1.30;;
54193;SDS011;40102;50.906;6.972;2024-02-26T01:12:40;1.17;;;0.55;;
54193;SDS011;40102;50.906;6.972;2024-02-26T01:15:06;0.75;;;0.60;;
54193;SDS011;40102;50.906;6.972;2024-02-26T01:17:31;1.58;;;0.70;;
54193;SDS011;40102;50.906;6.972;2024-02-26T01:19:57;0.82;;;0.60;;
54193;SDS011;40102;50.906;6.972;2024-02-26T01:22:22;4.40;;;0.65;;
54193;SDS011;40102;50.906;6.972;2024-02-26T01:24:47;2.05;;;0.63;;
54193;SDS011;40102;50.906;6.972;2024-02-26T01:27:13;1.05;;;0.70;;
54193;SDS011;40102;50.906;6.972;2024-02-26T01:29:40;0.50;;;0.35;;
54193;SDS011;40102;50.906;6.972;2024-02-26T01:32:06;1.73;;;0.55;;
54193;SDS011;40102;50.906;6.972;2024-02-26T01:34:31;0.95;;;0.60;;
54193;SDS011;40102;50.906;6.972;2024-02-26T01:36:56;1.00;;;0.50;;
54193;SDS011;40102;50.906;6.972;2024-02-26T01:39:22;0.60;;;0.50;;
54193;SDS011;40102;50.906;6.972;2024-02-26T01:41:47;0.82;;;0.52;;
54193;SDS011;40102;50.906;6.972;2024-02-26T01:44:12;1.33;;;0.50;;
54193;SDS011;40102;50.906;6.972;2024-02-26T01:46:40;0.68;;;0.50;;
54193;SDS011;40102;50.906;6.972;2024-02-26T01:49:07;1.13;;;0.50;;
54193;SDS011;40102;50.906;6.972;2024-02-26T01:51:33;0.75;;;0.50;;
54193;SDS011;40102;50.906;6.972;2024-02-26T01:54:00;1.60;;;0.65;;
54193;SDS011;40102;50.906;6.972;2024-02-26T01:56:28;1.05;;;0.68;;
54193;SDS011;40102;50.906;6.972;2024-02-26T01:58:57;2.17;;;0.50;;
54193;SDS011;40102;50.906;6.972;2024-02-26T02:01:25;0.70;;;0.50;;
54193;SDS011;40102;50.906;6.972;2024-02-26T02:03:51;0.88;;;0.50;;
54193;SDS011;40102;50.906;6.972;2024-02-26T02:06:18;1.35;;;0.50;;
54193;SDS011;40102;50.906;6.972;2024-02-26T02:08:44;1.10;;;0.50;;
54193;SDS011;40102;50.906;6.972;2024-02-26T02:11:09;0.70;;;0.50;;
54193;SDS011;40102;50.906;6.972;2024-02-26T02:13:36;1.15;;;0.30;;
54193;SDS011;40102;50.906;6.972;2024-02-26T02:16:02;0.77;;;0.40;;
54193;SDS011;40102;50.906;6.972;2024-02-26T02:18:28;0.85;;;0.50;;
54193;SDS011;40102;50.906;6.972;2024-02-26T02:20:53;1.40;;;0.60;;
54193;SDS011;40102;50.906;6.972;2024-02-26T02:23:21;1.67;;;0.68;;
54193;SDS011;40102;50.906;6.972;2024-02-26T02:25:46;1.08;;;0.63;;
54193;SDS011;40102;50.906;6.972;2024-02-26T02:28:11;0.73;;;0.40;;
54193;SDS011;40102;50.906;6.972;2024-02-26T02:30:36;2.58;;;0.60;;
54193;SDS011;40102;50.906;6.972;2024-02-26T02:33:03;2.15;;;0.60;;
54193;SDS011;40102;50.906;6.972;2024-02-26T02:35:28;0.70;;;0.50;;
54193;SDS011;40102;50.906;6.972;2024-02-26T02:37:54;1.45;;;0.70;;
54193;SDS011;40102;50.906;6.972;2024-02-26T02:40:20;0.60;;;0.40;;
54193;SDS011;40102;50.906;6.972;2024-02-26T02:42:46;1.92;;;0.47;;
54193;SDS011;40102;50.906;6.972;2024-02-26T02:45:11;0.40;;;0.40;;
54193;SDS011;40102;50.906;6.972;2024-02-26T02:47:36;0.45;;;0.40;;
54193;SDS011;40102;50.906;6.972;2024-02-26T02:50:02;0.50;;;0.40;;
54193;SDS011;40102;50.906;6.972;2024-02-26T02:52:28;1.10;;;0.60;;
54193;SDS011;40102;50.906;6.972;2024-02-26T02:54:53;0.85;;;0.57;;
54193;SDS011;40102;50.906;6.972;2024-02-26T02:57:19;0.93;;;0.50;;
54193;SDS011;40102;50.906;6.972;2024-02-26T02:59:44;0.82;;;0.60;;
54193;SDS011;40102;50.906;6.972;2024-02-26T03:02:10;0.98;;;0.85;;
54193;SDS011;40102;50.906;6.972;2024-02-26T03:04:35;0.80;;;0.50;;
54193;SDS011;40102;50.906;6.972;2024-02-26T03:07:00;0.77;;;0.50;;
54193;SDS011;40102;50.906;6.972;2024-02-26T03:09:26;0.70;;;0.55;;
54193;SDS011;40102;50.906;6.972;2024-02-26T03:11:51;1.77;;;0.63;;
54193;SDS011;40102;50.906;6.972;2024-02-26T03:14:17;1.95;;;0.50;;
54193;SDS011;40102;50.906;6.972;2024-02-26T03:16:42;1.10;;;0.60;;
54193;SDS011;40102;50.906;6.972;2024-02-26T03:19:07;0.60;;;0.40;;
54193;SDS011;40102;50.906;6.972;2024-02-26T03:21:32;1.25;;;0.60;;
54193;SDS011;40102;50.906;6.972;2024-02-26T03:23:58;1.58;;;0.70;;
54193;SDS011;40102;50.906;6.972;2024-02-26T03:26:23;0.90;;;0.50;;
54193;SDS011;40102;50.906;6.972;2024-02-26T03:28:48;0.80;;;0.57;;
54193;SDS011;40102;50.906;6.972;2024-02-26T03:31:14;1.35;;;0.65;;
54193;SDS011;40102;50.906;6.972;2024-02-26T03:33:39;0.95;;;0.45;;
54193;SDS011;40102;50.906;6.972;2024-02-26T03:36:05;0.77;;;0.40;;
54193;SDS011;40102;50.906;6.972;2024-02-26T03:38:32;1.08;;;0.50;;
54193;SDS011;40102;50.906;6.972;2024-02-26T03:40:57;0.85;;;0.60;;
54193;SDS011;40102;50.906;6.972;2024-02-26T03:43:23;0.60;;;0.43;;
54193;SDS011;40102;50.906;6.972;2024-02-26T03:45:48;0.80;;;0.43;;
54193;SDS011;40102;50.906;6.972;2024-02-26T03:48:13;0.85;;;0.55;;
54193;SDS011;40102;50.906;6.972;2024-02-26T03:50:38;1.33;;;0.65;;
54193;SDS011;40102;50.906;6.972;2024-02-26T03:53:04;1.70;;;0.50;;
54193;SDS011;40102;50.906;6.972;2024-02-26T03:55:29;1.45;;;0.70;;
54193;SDS011;40102;50.906;6.972;2024-02-26T03:57:55;0.57;;;0.50;;
54193;SDS011;40102;50.906;6.972;2024-02-26T04:00:20;0.98;;;0.50;;
54193;SDS011;40102;50.906;6.972;2024-02-26T04:02:48;1.23;;;0.60;;
54193;SDS011;40102;50.906;6.972;2024-02-26T04:05:14;2.40;;;0.70;;
54193;SDS011;40102;50.906;6.972;2024-02-26T04:07:39;1.27;;;0.70;;
54193;SDS011;40102;50.906;6.972;2024-02-26T04:10:09;1.63;;;0.57;;
54193;SDS011;40102;50.906;6.972;2024-02-26T04:12:35;1.08;;;0.70;;
54193;SDS011;40102;50.906;6.972;2024-02-26T04:15:00;0.88;;;0.47;;
54193;SDS011;40102;50.906;6.972;2024-02-26T04:17:26;1.20;;;0.50;;
54193;SDS011;40102;50.906;6.972;2024-02-26T04:19:51;0.90;;;0.70;;
54193;SDS011;40102;50.906;6.972;2024-02-26T04:22:16;0.75;;;0.55;;
54193;SDS011;40102;50.906;6.972;2024-02-26T04:24:42;1.83;;;0.70;;
54193;SDS011;40102;50.906;6.972;2024-02-26T04:27:07;1.25;;;0.60;;
54193;SDS011;40102;50.906;6.972;2024-02-26T04:29:33;1.45;;;0.52;;
54193;SDS011;40102;50.906;6.972;2024-02-26T04:31:58;2.00;;;0.80;;
54193;SDS011;40102;50.906;6.972;2024-02-26T04:34:23;0.90;;;0.60;;
54193;SDS011;40102;50.906;6.972;2024-02-26T04:36:48;2.20;;;0.60;;
54193;SDS011;40102;50.906;6.972;2024-02-26T04:39:14;1.10;;;0.65;;
54193;SDS011;40102;50.906;6.972;2024-02-26T04:41:39;2.80;;;0.75;;
54193;SDS011;40102;50.906;6.972;2024-02-26T04:44:05;1.35;;;0.60;;
54193;SDS011;40102;50.906;6.972;2024-02-26T04:46:30;0.70;;;0.60;;
54193;SDS011;40102;50.906;6.972;2024-02-26T04:48:56;1.00;;;0.70;;
54193;SDS011;40102;50.906;6.972;2024-02-26T04:51:21;1.10;;;0.60;;
54193;SDS011;40102;50.906;6.972;2024-02-26T04:53:46;0.70;;;0.50;;
54193;SDS011;40102;50.906;6.972;2024-02-26T04:56:12;5.60;;;0.70;;
54193;SDS011;40102;50.906;6.972;2024-02-26T04:58:37;2.03;;;0.93;;
54193;SDS011;40102;50.906;6.972;2024-02-26T05:01:03;1.10;;;0.70;;
54193;SDS011;40102;50.906;6.972;2024-02-26T05:03:28;1.95;;;0.75;;
54193;SDS011;40102;50.906;6.972;2024-02-26T05:05:54;0.98;;;0.68;;
54193;SDS011;40102;50.906;6.972;2024-02-26T05:08:20;1.00;;;0.70;;
54193;SDS011;40102;50.906;6.972;2024-02-26T05:10:45;1.48;;;0.80;;
54193;SDS011;40102;50.906;6.972;2024-02-26T05:13:10;1.00;;;0.70;;
54193;SDS011;40102;50.906;6.972;2024-02-26T05:15:36;0.80;;;0.60;;
54193;SDS011;40102;50.906;6.972;2024-02-26T05:18:02;2.30;;;0.77;;
54193;SDS011;40102;50.906;6.972;2024-02-26T05:20:28;1.88;;;0.63;;
54193;SDS011;40102;50.906;6.972;2024-02-26T05:22:53;1.40;;;0.63;;
54193;SDS011;40102;50.906;6.972;2024-02-26T05:25:19;0.63;;;0.63;;
54193;SDS011;40102;50.906;6.972;2024-02-26T05:27:44;0.60;;;0.45;;
54193;SDS011;40102;50.906;6.972;2024-02-26T05:30:10;1.00;;;0.73;;
54193;SDS011;40102;50.906;6.972;2024-02-26T05:32:36;1.58;;;0.75;;
54193;SDS011;40102;50.906;6.972;2024-02-26T05:35:02;1.92;;;0.73;;
54193;SDS011;40102;50.906;6.972;2024-02-26T05:37:30;2.83;;;0.70;;
54193;SDS011;40102;50.906;6.972;2024-02-26T05:39:56;1.95;;;1.10;;
54193;SDS011;40102;50.906;6.972;2024-02-26T05:42:21;0.73;;;0.70;;
54193;SDS011;40102;50.906;6.972;2024-02-26T05:44:47;1.27;;;0.75;;
54193;SDS011;40102;50.906;6.972;2024-02-26T05:47:12;2.75;;;0.93;;
54193;SDS011;40102;50.906;6.972;2024-02-26T05:49:38;1.80;;;0.90;;
54193;SDS011;40102;50.906;6.972;2024-02-26T05:52:04;2.88;;;0.80;;
54193;SDS011;40102;50.906;6.972;2024-02-26T05:54:29;1.52;;;0.95;;
54193;SDS011;40102;50.906;6.972;2024-02-26T05:56:55;2.10;;;0.80;;
54193;SDS011;40102;50.906;6.972;2024-02-26T05:59:20;3.00;;;0.80;;
54193;SDS011;40102;50.906;6.972;2024-02-26T06:01:45;1.85;;;0.80;;
54193;SDS011;40102;50.906;6.972;2024-02-26T06:04:11;1.83;;;0.80;;
54193;SDS011;40102;50.906;6.972;2024-02-26T06:06:37;1.65;;;0.80;;
54193;SDS011;40102;50.906;6.972;2024-02-26T06:09:02;1.48;;;0.80;;
54193;SDS011;40102;50.906;6.972;2024-02-26T06:11:30;2.05;;;0.88;;
54193;SDS011;40102;50.906;6.972;2024-02-26T06:13:55;0.93;;;0.70;;
54193;SDS011;40102;50.906;6.972;2024-02-26T06:16:21;1.33;;;0.90;;
54193;SDS011;40102;50.906;6.972;2024-02-26T06:18:46;1.00;;;0.73;;
54193;SDS011;40102;50.906;6.972;2024-02-26T06:21:11;1.80;;;0.80;;
54193;SDS011;40102;50.906;6.972;2024-02-26T06:23:37;0.98;;;0.70;;
54193;SDS011;40102;50.906;6.972;2024-02-26T06:26:03;2.47;;;0.75;;
54193;SDS011;40102;50.906;6.972;2024-02-26T06:28:29;1.52;;;0.80;;
54193;SDS011;40102;50.906;6.972;2024-02-26T06:30:57;1.20;;;0.70;;
54193;SDS011;40102;50.906;6.972;2024-02-26T06:33:22;2.38;;;0.70;;
54193;SDS011;40102;50.906;6.972;2024-02-26T06:35:47;2.22;;;1.13;;
54193;SDS011;40102;50.906;6.972;2024-02-26T06:38:13;1.88;;;0.90;;
54193;SDS011;40102;50.906;6.972;2024-02-26T06:40:38;1.40;;;0.80;;
54193;SDS011;40102;50.906;6.972;2024-02-26T06:43:04;1.33;;;0.80;;
54193;SDS011;40102;50.906;6.972;2024-02-26T06:45:29;1.42;;;0.80;;
54193;SDS011;40102;50.906;6.972;2024-02-26T06:47:55;1.50;;;1.00;;
54193;SDS011;40102;50.906;6.972;2024-02-26T06:50:21;2.03;;;0.95;;
54193;SDS011;40102;50.906;6.972;2024-02-26T06:52:47;1.77;;;1.00;;
54193;SDS011;40102;50.906;6.972;2024-02-26T06:55:12;3.80;;;0.98;;
54193;SDS011;40102;50.906;6.972;2024-02-26T06:57:38;2.03;;;1.08;;
54193;SDS011;40102;50.906;6.972;2024-02-26T07:00:03;2.17;;;1.00;;
54193;SDS011;40102;50.906;6.972;2024-02-26T07:02:30;1.25;;;0.80;;
54193;SDS011;40102;50.906;6.972;2024-02-26T07:04:55;1.65;;;0.90;;
54193;SDS011;40102;50.906;6.972;2024-02-26T07:07:23;2.13;;;0.98;;
54193;SDS011;40102;50.906;6.972;2024-02-26T07:09:48;1.90;;;0.90;;
54193;SDS011;40102;50.906;6.972;2024-02-26T07:12:14;1.88;;;0.90;;
54193;SDS011;40102;50.906;6.972;2024-02-26T07:14:39;3.03;;;1.02;;
54193;SDS011;40102;50.906;6.972;2024-02-26T07:17:04;1.20;;;0.93;;
54193;SDS011;40102;50.906;6.972;2024-02-26T07:19:30;1.50;;;0.90;;
54193;SDS011;40102;50.906;6.972;2024-02-26T07:21:55;2.25;;;1.10;;
54193;SDS011;40102;50.906;6.972;2024-02-26T07:24:20;1.60;;;0.93;;
54193;SDS011;40102;50.906;6.972;2024-02-26T07:26:46;1.95;;;1.20;;
54193;SDS011;40102;50.906;6.972;2024-02-26T07:29:11;1.60;;;1.00;;
54193;SDS011;40102;50.906;6.972;2024-02-26T07:31:37;1.90;;;0.98;;
54193;SDS011;40102;50.906;6.972;2024-02-26T07:34:02;3.13;;;1.00;;
54193;SDS011;40102;50.906;6.972;2024-02-26T07:36:27;2.05;;;0.90;;
54193;SDS011;40102;50.906;6.972;2024-02-26T07:38:52;2.00;;;1.13;;
54193;SDS011;40102;50.906;6.972;2024-02-26T07:41:19;1.60;;;1.00;;
54193;SDS011;40102;50.906;6.972;2024-02-26T07:43:45;4.13;;;1.10;;
54193;SDS011;40102;50.906;6.972;2024-02-26T07:46:13;1.95;;;1.00;;
54193;SDS011;40102;50.906;6.972;2024-02-26T07:48:38;1.58;;;1.15;;
54193;SDS011;40102;50.906;6.972;2024-02-26T07:51:04;3.33;;;1.10;;
54193;SDS011;40102;50.906;6.972;2024-02-26T07:53:29;1.77;;;1.17;;
54193;SDS011;40102;50.906;6.972;2024-02-26T07:55:55;1.58;;;0.90;;
54193;SDS011;40102;50.906;6.972;2024-02-26T07:58:22;1.92;;;1.02;;
54193;SDS011;40102;50.906;6.972;2024-02-26T08:00:49;1.60;;;0.90;;
54193;SDS011;40102;50.906;6.972;2024-02-26T08:03:14;1.65;;;1.10;;
54193;SDS011;40102;50.906;6.972;2024-02-26T08:05:40;1.50;;;0.95;;
54193;SDS011;40102;50.906;6.972;2024-02-26T08:08:07;1.70;;;0.98;;
54193;SDS011;40102;50.906;6.972;2024-02-26T08:10:33;3.35;;;0.90;;
54193;SDS011;40102;50.906;6.972;2024-02-26T08:12:58;1.50;;;0.90;;
54193;SDS011;40102;50.906;6.972;2024-02-26T08:15:30;2.53;;;1.08;;
54193;SDS011;40102;50.906;6.972;2024-02-26T08:18:02;3.42;;;1.15;;
54193;SDS011;40102;50.906;6.972;2024-02-26T08:20:28;0.82;;;0.73;;
54193;SDS011;40102;50.906;6.972;2024-02-26T08:22:54;2.20;;;1.00;;
54193;SDS011;40102;50.906;6.972;2024-02-26T08:25:20;1.35;;;0.88;;
54193;SDS011;40102;50.906;6.972;2024-02-26T08:27:45;1.48;;;0.85;;
54193;SDS011;40102;50.906;6.972;2024-02-26T08:30:12;2.05;;;0.88;;
54193;SDS011;40102;50.906;6.972;2024-02-26T08:32:41;1.17;;;0.80;;
54193;SDS011;40102;50.906;6.972;2024-02-26T08:35:07;2.53;;;0.93;;
54193;SDS011;40102;50.906;6.972;2024-02-26T08:37:32;1.40;;;1.10;;
54193;SDS011;40102;50.906;6.972;2024-02-26T08:39:58;1.92;;;0.77;;
54193;SDS011;40102;50.906;6.972;2024-02-26T08:42:23;1.23;;;0.80;;
54193;SDS011;40102;50.906;6.972;2024-02-26T08:44:49;1.42;;;1.00;;
54193;SDS011;40102;50.906;6.972;2024-02-26T08:47:14;1.65;;;0.85;;
54193;SDS011;40102;50.906;6.972;2024-02-26T08:49:44;2.08;;;1.10;;
54193;SDS011;40102;50.906;6.972;2024-02-26T08:52:09;2.70;;;1.00;;
54193;SDS011;40102;50.906;6.972;2024-02-26T08:54:35;1.80;;;1.17;;
54193;SDS011;40102;50.906;6.972;2024-02-26T08:57:00;4.07;;;1.75;;
54193;SDS011;40102;50.906;6.972;2024-02-26T08:59:25;2.17;;;1.20;;
54193;SDS011;40102;50.906;6.972;2024-02-26T09:01:51;1.40;;;1.00;;
54193;SDS011;40102;50.906;6.972;2024-02-26T09:04:16;4.07;;;1.23;;
54193;SDS011;40102;50.906;6.972;2024-02-26T09:06:41;2.38;;;1.17;;
54193;SDS011;40102;50.906;6.972;2024-02-26T09:09:07;1.98;;;1.05;;
54193;SDS011;40102;50.906;6.972;2024-02-26T09:11:32;2.10;;;1.20;;
54193;SDS011;40102;50.906;6.972;2024-02-26T09:13:57;2.53;;;1.40;;
54193;SDS011;40102;50.906;6.972;2024-02-26T09:16:22;2.28;;;1.40;;
54193;SDS011;40102;50.906;6.972;2024-02-26T09:18:48;1.85;;;1.20;;
54193;SDS011;40102;50.906;6.972;2024-02-26T09:21:13;2.03;;;1.08;;
54193;SDS011;40102;50.906;6.972;2024-02-26T09:23:39;2.80;;;1.20;;
54193;SDS011;40102;50.906;6.972;2024-02-26T09:26:05;1.73;;;1.13;;
54193;SDS011;40102;50.906;6.972;2024-02-26T09:28:31;2.95;;;1.30;;
54193;SDS011;40102;50.906;6.972;2024-02-26T09:31:02;4.63;;;1.40;;
54193;SDS011;40102;50.906;6.972;2024-02-26T09:33:28;2.63;;;1.25;;
54193;SDS011;40102;50.906;6.972;2024-02-26T09:35:53;3.20;;;1.33;;
54193;SDS011;40102;50.906;6.972;2024-02-26T09:38:18;3.15;;;1.40;;
54193;SDS011;40102;50.906;6.972;2024-02-26T09:40:44;2.17;;;1.20;;
54193;SDS011;40102;50.906;6.972;2024-02-26T09:43:09;2.70;;;1.25;;
54193;SDS011;40102;50.906;6.972;2024-02-26T09:45:40;3.65;;;1.30;;
54193;SDS011;40102;50.906;6.972;2024-02-26T09:48:06;2.28;;;1.33;;
54193;SDS011;40102;50.906;6.972;2024-02-26T09:50:33;1.95;;;1.23;;
54193;SDS011;40102;50.906;6.972;2024-02-26T09:52:59;2.08;;;1.27;;
54193;SDS011;40102;50.906;6.972;2024-02-26T09:55:30;2.35;;;1.20;;
54193;SDS011;40102;50.906;6.972;2024-02-26T09:57:57;1.88;;;1.30;;
54193;SDS011;40102;50.906;6.972;2024-02-26T10:00:27;2.03;;;1.25;;
54193;SDS011;40102;50.906;6.972;2024-02-26T10:02:57;1.80;;;1.33;;
54193;SDS011;40102;50.906;6.972;2024-02-26T10:05:25;3.05;;;1.50;;
54193;SDS011;40102;50.906;6.972;2024-02-26T10:07:51;2.30;;;1.38;;
54193;SDS011;40102;50.906;6.972;2024-02-26T10:10:17;2.50;;;1.40;;
54193;SDS011;40102;50.906;6.972;2024-02-26T10:12:44;3.05;;;1.77;;
54193;SDS011;40102;50.906;6.972;2024-02-26T10:15:09;2.42;;;1.25;;
54193;SDS011;40102;50.906;6.972;2024-02-26T10:17:34;4.30;;;1.20;;
54193;SDS011;40102;50.906;6.972;2024-02-26T10:20:11;2.08;;;1.17;;
54193;SDS011;40102;50.906;6.972;2024-02-26T10:22:41;2.33;;;1.20;;
54193;SDS011;40102;50.906;6.972;2024-02-26T10:25:06;2.78;;;1.02;;
54193;SDS011;40102;50.906;6.972;2024-02-26T10:27:33;3.08;;;1.23;;
54193;SDS011;40102;50.906;6.972;2024-02-26T10:30:01;2.33;;;1.45;;
54193;SDS011;40102;50.906;6.972;2024-02-26T10:32:28;2.47;;;1.35;;
54193;SDS011;40102;50.906;6.972;2024-02-26T10:34:56;2.30;;;1.42;;
54193;SDS011;40102;50.906;6.972;2024-02-26T10:37:22;2.20;;;1.50;;
54193;SDS011;40102;50.906;6.972;2024-02-26T10:39:48;1.58;;;1.27;;
54193;SDS011;40102;50.906;6.972;2024-02-26T10:42:14;2.35;;;1.50;;
54193;SDS011;40102;50.906;6.972;2024-02-26T10:44:40;2.58;;;1.20;;
54193;SDS011;40102;50.906;6.972;2024-02-26T10:47:07;2.40;;;1.40;;
54193;SDS011;40102;50.906;6.972;2024-02-26T10:49:32;1.98;;;1.52;;
54193;SDS011;40102;50.906;6.972;2024-02-26T10:52:00;1.95;;;1.40;;
54193;SDS011;40102;50.906;6.972;2024-02-26T10:54:29;3.95;;;1.27;;
54193;SDS011;40102;50.906;6.972;2024-02-26T10:56:56;2.28;;;1.45;;
54193;SDS011;40102;50.906;6.972;2024-02-26T10:59:22;2.03;;;1.25;;
54193;SDS011;40102;50.906;6.972;2024-02-26T11:01:48;4.18;;;1.30;;
54193;SDS011;40102;50.906;6.972;2024-02-26T11:04:14;3.08;;;1.30;;
54193;SDS011;40102;50.906;6.972;2024-02-26T11:06:42;1.85;;;1.10;;
54193;SDS011;40102;50.906;6.972;2024-02-26T11:09:10;1.75;;;1.20;;
54193;SDS011;40102;50.906;6.972;2024-02-26T11:11:40;2.60;;;1.25;;
54193;SDS011;40102;50.906;6.972;2024-02-26T11:14:08;3.00;;;1.75;;
54193;SDS011;40102;50.906;6.972;2024-02-26T11:16:34;3.90;;;1.50;;
54193;SDS011;40102;50.906;6.972;2024-02-26T11:19:00;4.45;;;1.60;;
54193;SDS011;40102;50.906;6.972;2024-02-26T11:21:36;3.67;;;1.65;;
54193;SDS011;40102;50.906;6.972;2024-02-26T11:24:27;3.05;;;1.58;;
54193;SDS011;40102;50.906;6.972;2024-02-26T11:26:55;3.30;;;1.77;;
54193;SDS011;40102;50.906;6.972;2024-02-26T11:31:50;4.78;;;1.60;;
54193;SDS011;40102;50.906;6.972;2024-02-26T11:34:17;2.85;;;1.38;;
54193;SDS011;40102;50.906;6.972;2024-02-26T11:36:42;3.22;;;1.40;;
54193;SDS011;40102;50.906;6.972;2024-02-26T11:39:08;3.80;;;1.50;;
54193;SDS011;40102;50.906;6.972;2024-02-26T11:41:37;2.10;;;1.50;;
54193;SDS011;40102;50.906;6.972;2024-02-26T11:44:03;3.10;;;1.48;;
54193;SDS011;40102;50.906;6.972;2024-02-26T11:46:32;3.38;;;1.58;;
54193;SDS011;40102;50.906;6.972;2024-02-26T11:49:41;2.83;;;1.55;;
54193;SDS011;40102;50.906;6.972;2024-02-26T11:51:57;4.75;;;1.75;;
54193;SDS011;40102;50.906;6.972;2024-02-26T11:57:29;2.72;;;1.65;;
54193;SDS011;40102;50.906;6.972;2024-02-26T12:00:14;2.80;;;1.52;;
54193;SDS011;40102;50.906;6.972;2024-02-26T12:02:49;3.33;;;1.77;;
54193;SDS011;40102;50.906;6.972;2024-02-26T12:05:22;2.30;;;1.60;;
54193;SDS011;40102;50.906;6.972;2024-02-26T12:07:54;3.28;;;1.70;;
54193;SDS011;40102;50.906;6.972;2024-02-26T12:10:25;3.65;;;1.60;;
54193;SDS011;40102;50.906;6.972;2024-02-26T12:13:14;2.55;;;1.40;;
54193;SDS011;40102;50.906;6.972;2024-02-26T12:15:40;3.00;;;1.60;;
54193;SDS011;40102;50.906;6.972;2024-02-26T12:18:08;5.63;;;1.60;;
54193;SDS011;40102;50.906;6.972;2024-02-26T12:20:35;2.10;;;1.58;;
54193;SDS011;40102;50.906;6.972;2024-02-26T12:23:01;3.50;;;1.70;;
54193;SDS011;40102;50.906;6.972;2024-02-26T12:25:29;3.42;;;1.73;;
54193;SDS011;40102;50.906;6.972;2024-02-26T12:27:55;3.88;;;1.63;;
54193;SDS011;40102;50.906;6.972;2024-02-26T12:30:21;3.15;;;1.80;;
54193;SDS011;40102;50.906;6.972;2024-02-26T12:32:47;2.00;;;1.42;;
54193;SDS011;40102;50.906;6.972;2024-02-26T12:35:14;2.95;;;1.70;;
54193;SDS011;40102;50.906;6.972;2024-02-26T12:37:41;2.63;;;1.50;;
54193;SDS011;40102;50.906;6.972;2024-02-26T12:40:10;3.15;;;1.85;;
54193;SDS011;40102;50.906;6.972;2024-02-26T12:42:36;2.22;;;1.65;;
54193;SDS011;40102;50.906;6.972;2024-02-26T12:45:06;3.67;;;1.70;;
54193;SDS011;40102;50.906;6.972;2024-02-26T12:47:36;4.70;;;1.90;;
54193;SDS011;40102;50.906;6.972;2024-02-26T12:50:02;3.05;;;1.80;;
54193;SDS011;40102;50.906;6.972;2024-02-26T12:52:29;3.50;;;1.60;;
54193;SDS011;40102;50.906;6.972;2024-02-26T12:54:56;3.53;;;1.52;;
54193;SDS011;40102;50.906;6.972;2024-02-26T12:57:21;2.63;;;1.60;;
54193;SDS011;40102;50.906;6.972;2024-02-26T12:59:47;1.95;;;1.38;;
54193;SDS011;40102;50.906;6.972;2024-02-26T13:02:12;2.70;;;1.67;;
54193;SDS011;40102;50.906;6.972;2024-02-26T13:04:38;3.38;;;1.70;;
54193;SDS011;40102;50.906;6.972;2024-02-26T13:07:04;3.03;;;1.67;;
54193;SDS011;40102;50.906;6.972;2024-02-26T13:09:32;2.30;;;1.45;;
54193;SDS011;40102;50.906;6.972;2024-02-26T13:14:25;4.00;;;2.00;;
54193;SDS011;40102;50.906;6.972;2024-02-26T13:16:55;2.60;;;1.60;;
54193;SDS011;40102;50.906;6.972;2024-02-26T13:19:21;3.63;;;2.10;;
54193;SDS011;40102;50.906;6.972;2024-02-26T13:21:46;3.85;;;1.80;;
54193;SDS011;40102;50.906;6.972;2024-02-26T13:24:15;3.15;;;2.03;;
54193;SDS011;40102;50.906;6.972;2024-02-26T13:26:41;2.97;;;1.75;;
54193;SDS011;40102;50.906;6.972;2024-02-26T13:29:07;3.08;;;1.70;;
54193;SDS011;40102;50.906;6.972;2024-02-26T13:31:38;3.70;;;1.70;;
54193;SDS011;40102;50.906;6.972;2024-02-26T13:34:05;4.57;;;1.85;;
54193;SDS011;40102;50.906;6.972;2024-02-26T13:36:30;3.25;;;1.90;;
54193;SDS011;40102;50.906;6.972;2024-02-26T13:38:55;2.63;;;1.80;;
54193;SDS011;40102;50.906;6.972;2024-02-26T13:41:21;3.67;;;2.15;;
54193;SDS011;40102;50.906;6.972;2024-02-26T13:43:47;3.03;;;1.95;;
54193;SDS011;40102;50.906;6.972;2024-02-26T13:46:13;3.65;;;1.77;;
54193;SDS011;40102;50.906;6.972;2024-02-26T13:48:40;2.50;;;1.60;;
54193;SDS011;40102;50.906;6.972;2024-02-26T13:51:06;3.33;;;1.80;;
54193;SDS011;40102;50.906;6.972;2024-02-26T13:53:31;4.18;;;2.38;;
54193;SDS011;40102;50.906;6.972;2024-02-26T13:55:57;3.80;;;2.33;;
54193;SDS011;40102;50.906;6.972;2024-02-26T13:58:23;5.13;;;2.00;;
54193;SDS011;40102;50.906;6.972;2024-02-26T14:00:50;5.15;;;2.15;;
54193;SDS011;40102;50.906;6.972;2024-02-26T14:03:17;4.47;;;2.10;;
54193;SDS011;40102;50.906;6.972;2024-02-26T14:05:42;4.63;;;2.25;;
54193;SDS011;40102;50.906;6.972;2024-02-26T14:08:08;4.97;;;2.65;;
54193;SDS011;40102;50.906;6.972;2024-02-26T14:10:33;4.90;;;2.40;;
54193;SDS011;40102;50.906;6.972;2024-02-26T14:12:59;2.85;;;1.98;;
54193;SDS011;40102;50.906;6.972;2024-02-26T14:15:25;6.45;;;2.30;;
54193;SDS011;40102;50.906;6.972;2024-02-26T14:17:53;3.30;;;2.13;;
54193;SDS011;40102;50.906;6.972;2024-02-26T14:20:22;4.10;;;2.28;;
54193;SDS011;40102;50.906;6.972;2024-02-26T14:22:51;4.78;;;2.42;;
54193;SDS011;40102;50.906;6.972;2024-02-26T14:25:18;4.80;;;2.50;;
54193;SDS011;40102;50.906;6.972;2024-02-26T14:27:45;4.60;;;2.75;;
54193;SDS011;40102;50.906;6.972;2024-02-26T14:30:11;4.88;;;2.40;;
54193;SDS011;40102;50.906;6.972;2024-02-26T14:32:37;4.00;;;2.20;;
54193;SDS011;40102;50.906;6.972;2024-02-26T14:35:05;4.78;;;2.45;;
54193;SDS011;40102;50.906;6.972;2024-02-26T14:37:32;4.93;;;2.20;;
54193;SDS011;40102;50.906;6.972;2024-02-26T14:39:57;5.18;;;2.90;;
54193;SDS011;40102;50.906;6.972;2024-02-26T14:42:23;6.00;;;3.00;;
54193;SDS011;40102;50.906;6.972;2024-02-26T14:44:49;5.38;;;2.88;;
54193;SDS011;40102;50.906;6.972;2024-02-26T14:47:15;4.55;;;2.60;;
54193;SDS011;40102;50.906;6.972;2024-02-26T14:49:41;5.63;;;3.10;;
54193;SDS011;40102;50.906;6.972;2024-02-26T14:52:06;4.30;;;2.78;;